createdAt,value
2019-05-09T00:01:28.590Z,0.60
2019-05-09T00:04:03.302Z,0.60
2019-05-09T00:06:33.822Z,0.53
2019-05-09T00:09:06.433Z,0.40
2019-05-09T00:11:36.907Z,0.80
2019-05-09T00:14:08.141Z,0.60
2019-05-09T00:16:40.578Z,0.43
2019-05-09T00:19:10.912Z,0.50
2019-05-09T00:21:45.739Z,0.60
2019-05-09T00:24:16.044Z,0.70
2019-05-09T00:26:46.370Z,0.50
2019-05-09T00:29:16.457Z,0.63
2019-05-09T00:32:04.025Z,0.50
2019-05-09T00:34:34.097Z,0.80
2019-05-09T00:37:04.207Z,0.53
2019-05-09T00:39:34.194Z,0.60
2019-05-09T00:42:04.593Z,0.70
2019-05-09T00:44:53.288Z,0.70
2019-05-09T00:47:24.709Z,0.60
2019-05-09T00:49:54.849Z,0.87
2019-05-09T00:52:23.540Z,0.80
2019-05-09T00:54:53.161Z,0.97
2019-05-09T00:57:33.710Z,0.40
2019-05-09T01:00:09.257Z,0.73
2019-05-09T01:02:40.640Z,0.70
2019-05-09T01:05:09.094Z,0.50
2019-05-09T01:07:37.592Z,0.80
2019-05-09T01:10:06.405Z,0.70
2019-05-09T01:12:36.743Z,0.80
2019-05-09T01:15:07.407Z,0.57
2019-05-09T01:17:38.885Z,0.60
2019-05-09T01:20:07.369Z,0.50
2019-05-09T01:22:35.816Z,0.70
2019-05-09T01:25:06.921Z,0.60
2019-05-09T01:27:37.496Z,0.60
2019-05-09T01:30:07.609Z,0.80
2019-05-09T01:32:45.393Z,0.50
2019-05-09T01:35:13.876Z,0.77
2019-05-09T01:37:43.365Z,0.70
2019-05-09T01:40:13.358Z,0.50
2019-05-09T01:42:44.601Z,0.80
2019-05-09T01:45:15.539Z,0.70
2019-05-09T01:47:44.017Z,0.70
2019-05-09T01:50:14.102Z,0.70
2019-05-09T01:52:43.869Z,0.60
2019-05-09T01:55:14.160Z,0.67
2019-05-09T01:57:47.742Z,0.53
2019-05-09T02:00:16.741Z,0.60
2019-05-09T02:02:46.912Z,0.40
2019-05-09T02:05:15.315Z,0.80
2019-05-09T02:07:45.679Z,0.40
2019-05-09T02:10:14.124Z,0.70
2019-05-09T02:12:43.112Z,0.50
2019-05-09T02:15:16.122Z,0.40
2019-05-09T02:18:01.557Z,0.73
2019-05-09T02:20:28.514Z,0.80
2019-05-09T02:22:56.997Z,0.63
2019-05-09T02:25:28.898Z,0.70
2019-05-09T02:28:03.478Z,0.73
2019-05-09T02:30:35.769Z,0.70
2019-05-09T02:33:05.070Z,0.67
2019-05-09T02:35:42.624Z,0.50
2019-05-09T02:38:09.415Z,0.23
2019-05-09T02:40:39.445Z,0.80
2019-05-09T02:43:09.909Z,0.73
2019-05-09T02:45:49.324Z,0.60
2019-05-09T02:48:18.595Z,0.40
2019-05-09T02:50:50.664Z,0.30
2019-05-09T02:53:19.423Z,0.53
2019-05-09T02:55:49.771Z,0.60
2019-05-09T02:58:21.710Z,0.60
2019-05-09T03:00:51.798Z,0.40
2019-05-09T03:03:23.481Z,0.53
2019-05-09T03:05:52.250Z,0.50
2019-05-09T03:08:22.667Z,0.50
2019-05-09T03:10:52.519Z,0.60
2019-05-09T03:13:21.562Z,0.40
2019-05-09T03:15:51.660Z,0.40
2019-05-09T03:18:22.037Z,0.40
2019-05-09T03:20:52.117Z,0.40
2019-05-09T03:23:20.899Z,0.50
2019-05-09T03:25:51.781Z,0.30
2019-05-09T03:28:28.402Z,0.60
2019-05-09T03:31:09.376Z,0.60
2019-05-09T03:33:40.634Z,0.40
2019-05-09T03:36:10.866Z,0.50
2019-05-09T03:38:39.636Z,0.63
2019-05-09T03:41:10.060Z,0.50
2019-05-09T03:43:38.516Z,0.50
2019-05-09T03:46:30.488Z,0.80
2019-05-09T03:49:03.724Z,0.57
2019-05-09T03:51:37.746Z,0.90
2019-05-09T03:54:08.172Z,0.60
2019-05-09T03:56:47.908Z,0.60
2019-05-09T03:59:21.154Z,0.63
2019-05-09T04:01:50.581Z,0.60
2019-05-09T04:04:20.858Z,0.60
2019-05-09T04:06:52.157Z,0.30
2019-05-09T04:09:20.775Z,0.70
2019-05-09T04:11:50.847Z,0.70
2019-05-09T04:14:24.153Z,0.70
2019-05-09T04:16:57.553Z,0.60
2019-05-09T04:19:27.565Z,0.70
2019-05-09T04:21:57.818Z,0.60
2019-05-09T04:24:29.165Z,0.80
2019-05-09T04:27:01.949Z,0.90
2019-05-09T04:29:31.740Z,0.80
2019-05-09T04:32:01.533Z,0.60
2019-05-09T04:34:35.150Z,0.70
2019-05-09T04:37:03.928Z,0.60
2019-05-09T04:39:32.690Z,0.73
2019-05-09T04:42:05.389Z,0.80
2019-05-09T04:44:32.899Z,0.53
2019-05-09T04:47:03.613Z,0.97
2019-05-09T04:49:39.302Z,0.50
2019-05-09T04:52:04.446Z,0.80
2019-05-09T04:54:33.733Z,0.63
2019-05-09T04:57:03.333Z,0.57
2019-05-09T04:59:37.230Z,0.63
2019-05-09T05:02:11.684Z,0.80
2019-05-09T05:04:43.108Z,0.80
2019-05-09T05:07:14.365Z,1.00
2019-05-09T05:09:44.444Z,0.67
2019-05-09T05:12:14.389Z,0.60
2019-05-09T05:14:43.119Z,0.80
2019-05-09T05:17:14.722Z,0.80
2019-05-09T05:19:44.511Z,0.60
2019-05-09T05:22:19.610Z,0.70
2019-05-09T05:24:55.602Z,0.60
2019-05-09T05:27:27.728Z,0.70
2019-05-09T05:29:57.968Z,0.63
2019-05-09T05:32:39.536Z,0.60
2019-05-09T05:35:12.085Z,0.97
2019-05-09T05:37:41.067Z,1.00
2019-05-09T05:40:09.802Z,1.10
2019-05-09T05:42:39.757Z,0.90
2019-05-09T05:45:09.499Z,0.90
2019-05-09T05:47:45.431Z,0.70
2019-05-09T05:50:17.680Z,0.80
2019-05-09T05:52:47.549Z,1.10
2019-05-09T05:55:18.209Z,0.90
2019-05-09T05:57:47.873Z,0.80
2019-05-09T06:00:18.042Z,0.80
2019-05-09T06:02:47.864Z,0.80
2019-05-09T06:05:18.462Z,0.63
2019-05-09T06:07:50.923Z,0.87
2019-05-09T06:10:24.553Z,1.00
2019-05-09T06:12:57.367Z,0.97
2019-05-09T06:15:28.937Z,0.70
2019-05-09T06:17:59.977Z,0.90
2019-05-09T06:20:33.251Z,1.13
2019-05-09T06:23:02.432Z,1.10
2019-05-09T06:25:32.809Z,0.80
2019-05-09T06:28:02.827Z,0.90
2019-05-09T06:30:31.818Z,0.90
2019-05-09T06:33:05.084Z,0.97
2019-05-09T06:35:37.960Z,1.10
2019-05-09T06:38:10.506Z,1.10
2019-05-09T06:40:42.120Z,0.83
2019-05-09T06:43:29.038Z,0.80
2019-05-09T06:46:08.141Z,1.10
2019-05-09T06:48:40.161Z,0.83
2019-05-09T06:51:13.297Z,0.93
2019-05-09T06:53:44.316Z,1.10
2019-05-09T06:56:13.225Z,0.80
2019-05-09T06:58:42.655Z,0.70
2019-05-09T07:01:21.280Z,0.60
2019-05-09T07:03:57.551Z,1.30
2019-05-09T07:06:49.142Z,0.83
2019-05-09T07:09:27.855Z,0.80
2019-05-09T07:12:00.644Z,0.83
2019-05-09T07:14:33.173Z,0.90
2019-05-09T07:17:02.061Z,0.90
2019-05-09T07:19:32.161Z,0.90
2019-05-09T07:22:10.087Z,0.90
2019-05-09T07:25:05.865Z,0.57
2019-05-09T07:27:39.150Z,0.70
2019-05-09T07:30:10.439Z,0.70
2019-05-09T07:32:41.425Z,0.70
2019-05-09T07:35:13.061Z,0.70
2019-05-09T07:37:41.830Z,0.50
2019-05-09T07:40:12.422Z,0.70
2019-05-09T07:42:44.075Z,0.80
2019-05-09T07:45:13.929Z,0.70
2019-05-09T07:47:42.970Z,1.00
2019-05-09T07:50:13.233Z,0.83
2019-05-09T07:52:42.565Z,1.00
2019-05-09T07:55:12.378Z,0.90
2019-05-09T07:57:55.240Z,0.90
2019-05-09T08:00:33.128Z,0.60
2019-05-09T08:03:04.435Z,1.00
2019-05-09T08:05:32.902Z,0.70
2019-05-09T08:08:01.389Z,1.17
2019-05-09T08:10:33.419Z,0.67
2019-05-09T08:13:03.599Z,0.80
2019-05-09T08:15:35.368Z,1.00
2019-05-09T08:18:03.810Z,0.80
2019-05-09T08:20:32.295Z,0.87
2019-05-09T08:23:02.322Z,0.80
2019-05-09T08:25:30.984Z,0.97
2019-05-09T08:27:59.443Z,0.77
2019-05-09T08:30:36.110Z,0.73
2019-05-09T08:33:02.612Z,1.20
2019-05-09T08:35:31.647Z,1.10
2019-05-09T08:38:00.402Z,0.70
2019-05-09T08:40:30.678Z,0.80
2019-05-09T08:42:59.198Z,0.60
2019-05-09T08:45:31.564Z,0.87
2019-05-09T08:48:01.953Z,0.77
2019-05-09T08:50:35.005Z,1.17
2019-05-09T08:53:04.796Z,0.87
2019-05-09T08:55:35.257Z,1.00
2019-05-09T08:58:04.009Z,0.80
2019-05-09T09:00:32.463Z,0.90
2019-05-09T09:03:01.076Z,1.10
2019-05-09T09:05:29.529Z,0.87
2019-05-09T09:07:59.629Z,0.93
2019-05-09T09:10:28.857Z,1.00
2019-05-09T09:12:58.352Z,0.90
2019-05-09T09:15:50.083Z,1.20
2019-05-09T09:17:59.387Z,1.10
2019-05-09T09:20:29.078Z,1.00
2019-05-09T09:22:58.284Z,1.20
2019-05-09T09:25:28.631Z,1.20
2019-05-09T09:27:58.187Z,1.37
2019-05-09T09:30:29.303Z,1.20
2019-05-09T09:32:59.781Z,1.20
2019-05-09T09:35:28.982Z,1.20
2019-05-09T09:37:59.138Z,1.23
2019-05-09T09:40:28.022Z,1.23
2019-05-09T09:42:58.306Z,1.00
2019-05-09T09:45:27.976Z,1.47
2019-05-09T09:48:00.285Z,1.23
2019-05-09T09:50:30.157Z,0.93
2019-05-09T09:52:59.110Z,1.43
2019-05-09T09:55:30.248Z,1.10
2019-05-09T09:58:01.125Z,1.23
2019-05-09T10:00:51.303Z,1.50
2019-05-09T10:03:23.483Z,1.30
2019-05-09T10:05:54.367Z,1.10
2019-05-09T10:08:23.885Z,1.23
2019-05-09T10:10:53.913Z,1.10
2019-05-09T10:13:24.326Z,1.20
2019-05-09T10:16:03.732Z,1.10
2019-05-09T10:18:40.512Z,1.10
2019-05-09T10:21:16.629Z,1.33
2019-05-09T10:23:45.074Z,0.80
2019-05-09T10:26:13.741Z,1.20
2019-05-09T10:28:45.266Z,1.10
2019-05-09T10:31:12.533Z,1.00
2019-05-09T10:33:42.884Z,1.07
2019-05-09T10:36:13.686Z,1.00
2019-05-09T10:38:42.921Z,0.80
2019-05-09T10:41:15.174Z,0.70
2019-05-09T10:44:03.056Z,0.87
2019-05-09T10:46:53.639Z,0.90
2019-05-09T10:49:18.023Z,1.00
2019-05-09T10:51:48.667Z,0.80
2019-05-09T10:54:18.611Z,1.00
2019-05-09T10:56:48.921Z,0.93
2019-05-09T10:59:21.520Z,0.83
2019-05-09T11:01:49.924Z,0.90
2019-05-09T11:04:18.375Z,0.83
2019-05-09T11:06:50.045Z,0.80
2019-05-09T11:09:20.495Z,1.10
2019-05-09T11:11:48.953Z,0.70
2019-05-09T11:14:32.185Z,1.10
2019-05-09T11:16:54.321Z,0.67
2019-05-09T11:19:19.530Z,0.70
2019-05-09T11:21:47.975Z,0.90
2019-05-09T11:24:18.827Z,0.70
2019-05-09T11:26:48.170Z,0.90
2019-05-09T11:29:20.184Z,0.80
2019-05-09T11:31:51.309Z,0.77
2019-05-09T11:34:19.745Z,0.90
2019-05-09T11:36:50.041Z,0.73
2019-05-09T11:39:35.120Z,0.70
2019-05-09T11:41:51.646Z,0.80
2019-05-09T11:44:22.213Z,0.93
2019-05-09T11:46:51.833Z,1.00
2019-05-09T11:49:20.554Z,1.20
2019-05-09T11:51:50.418Z,0.80
2019-05-09T11:54:20.482Z,0.97
2019-05-09T11:56:52.308Z,0.87
2019-05-09T11:59:20.766Z,0.80
2019-05-09T12:01:50.346Z,0.70
2019-05-09T12:04:19.006Z,0.80
2019-05-09T12:06:49.960Z,0.80
2019-05-09T12:09:18.369Z,1.07
2019-05-09T12:11:48.288Z,0.70
2019-05-09T12:14:17.898Z,0.67
2019-05-09T12:16:49.821Z,0.87
2019-05-09T12:19:18.784Z,0.80
2019-05-09T12:21:50.903Z,0.70
2019-05-09T12:24:19.310Z,0.60
2019-05-09T12:26:49.874Z,0.60
2019-05-09T12:29:24.184Z,0.60
2019-05-09T12:31:53.671Z,0.97
2019-05-09T12:34:23.169Z,0.57
2019-05-09T12:36:52.800Z,0.80
2019-05-09T12:39:21.562Z,0.70
2019-05-09T12:41:49.965Z,0.63
2019-05-09T12:44:24.614Z,0.77
2019-05-09T12:46:50.921Z,0.67
2019-05-09T12:49:20.137Z,0.90
2019-05-09T12:51:49.929Z,0.57
2019-05-09T12:54:20.828Z,0.60
2019-05-09T12:56:50.135Z,0.53
2019-05-09T12:59:19.795Z,0.70
2019-05-09T13:01:49.578Z,0.60
2019-05-09T13:04:19.124Z,0.90
2019-05-09T13:06:49.996Z,0.77
2019-05-09T13:09:18.965Z,0.70
2019-05-09T13:11:48.266Z,0.63
2019-05-09T13:14:20.720Z,0.63
2019-05-09T13:16:54.347Z,0.60
2019-05-09T13:19:25.232Z,0.60
2019-05-09T13:21:54.609Z,0.50
2019-05-09T13:24:23.089Z,0.47
2019-05-09T13:26:53.223Z,0.70
2019-05-09T13:29:21.749Z,0.50
2019-05-09T13:31:50.186Z,0.80
2019-05-09T13:34:20.217Z,0.70
2019-05-09T13:36:50.305Z,0.70
2019-05-09T13:39:20.093Z,0.70
2019-05-09T13:41:50.141Z,0.90
2019-05-09T13:44:18.572Z,0.60
2019-05-09T13:46:48.842Z,0.60
2019-05-09T13:49:19.343Z,0.60
2019-05-09T13:51:57.378Z,0.50
2019-05-09T13:54:19.208Z,0.83
2019-05-09T13:56:54.990Z,0.70
2019-05-09T13:59:19.027Z,0.33
2019-05-09T14:01:48.133Z,0.67
2019-05-09T14:04:18.437Z,0.73
2019-05-09T14:06:48.838Z,0.50
2019-05-09T14:09:19.998Z,0.70
2019-05-09T14:11:48.101Z,0.73
2019-05-09T14:14:18.243Z,0.80
2019-05-09T14:16:47.961Z,1.00
2019-05-09T14:19:36.046Z,1.00
2019-05-09T14:21:48.774Z,0.97
2019-05-09T14:24:22.897Z,0.70
2019-05-09T14:26:58.312Z,0.97
2019-05-09T14:29:31.477Z,0.60
2019-05-09T14:32:04.305Z,0.90
2019-05-09T14:34:32.068Z,7.50
2019-05-09T14:37:00.697Z,13.03
2019-05-09T14:39:35.580Z,10.20
2019-05-09T14:42:04.366Z,18.87
2019-05-09T14:44:37.718Z,8.33
2019-05-09T14:47:09.618Z,4.37
2019-05-09T14:49:43.345Z,3.13
2019-05-09T14:52:08.699Z,2.30
2019-05-09T14:54:48.087Z,2.40
2019-05-09T14:57:20.605Z,1.97
2019-05-09T14:59:51.545Z,1.70
2019-05-09T15:02:27.070Z,1.37
2019-05-09T15:04:58.595Z,1.23
2019-05-09T15:07:31.581Z,1.07
2019-05-09T15:10:00.365Z,1.10
2019-05-09T15:12:32.857Z,1.10
2019-05-09T15:15:01.272Z,1.20
2019-05-09T15:17:32.616Z,1.40
2019-05-09T15:20:09.023Z,4.23
2019-05-09T15:22:40.290Z,2.30
2019-05-09T15:25:19.225Z,2.17
2019-05-09T15:27:47.668Z,2.00
2019-05-09T15:30:18.681Z,17.60
2019-05-09T15:32:51.778Z,18.67
2019-05-09T15:35:29.095Z,9.13
2019-05-09T15:37:59.136Z,7.53
2019-05-09T15:40:29.577Z,5.60
2019-05-09T15:43:00.025Z,9.87
2019-05-09T15:45:31.700Z,3.40
2019-05-09T15:48:03.359Z,3.17
2019-05-09T15:50:31.779Z,2.80
2019-05-09T15:53:00.654Z,2.67
2019-05-09T15:55:30.592Z,5.70
2019-05-09T15:58:00.928Z,70.43
2019-05-09T16:00:30.329Z,105.43
2019-05-09T16:02:59.191Z,126.27
2019-05-09T16:05:31.913Z,83.07
2019-05-09T16:08:01.931Z,24.87
2019-05-09T16:10:30.376Z,18.97
2019-05-09T16:13:00.559Z,16.17
2019-05-09T16:15:29.021Z,13.53
2019-05-09T16:17:59.354Z,11.27
2019-05-09T16:20:37.729Z,10.40
2019-05-09T16:23:02.453Z,8.90
2019-05-09T16:25:31.810Z,7.43
2019-05-09T16:28:00.563Z,6.97
2019-05-09T16:30:31.336Z,6.23
2019-05-09T16:33:02.213Z,6.37
2019-05-09T16:35:30.653Z,6.43
2019-05-09T16:38:06.358Z,5.63
2019-05-09T16:40:30.148Z,5.53
2019-05-09T16:43:00.811Z,5.30
2019-05-09T16:45:30.202Z,4.97
2019-05-09T16:48:00.309Z,5.20
2019-05-09T16:50:29.670Z,5.37
2019-05-09T16:53:01.041Z,4.90
2019-05-09T16:55:33.022Z,4.40
2019-05-09T16:58:03.019Z,4.40
2019-05-09T17:00:34.979Z,4.27
2019-05-09T17:03:05.379Z,4.20
2019-05-09T17:05:37.481Z,3.87
2019-05-09T17:08:08.177Z,4.20
2019-05-09T17:10:40.019Z,3.57
2019-05-09T17:13:08.424Z,3.77
2019-05-09T17:15:38.890Z,3.87
2019-05-09T17:18:10.031Z,4.70
2019-05-09T17:20:43.042Z,4.27
2019-05-09T17:23:16.237Z,4.30
2019-05-09T17:25:47.792Z,4.53
2019-05-09T17:28:17.651Z,4.00
2019-05-09T17:30:49.025Z,4.23
2019-05-09T17:33:17.753Z,3.63
2019-05-09T17:35:48.394Z,3.90
2019-05-09T17:38:20.160Z,3.63
2019-05-09T17:40:49.354Z,4.43
2019-05-09T17:43:19.277Z,3.17
2019-05-09T17:45:48.110Z,3.67
2019-05-09T17:48:19.201Z,3.43
2019-05-09T17:50:49.244Z,2.80
2019-05-09T17:53:19.571Z,2.93
2019-05-09T17:55:50.985Z,2.97
2019-05-09T17:58:29.848Z,2.90
2019-05-09T18:00:49.822Z,2.93
2019-05-09T18:03:18.435Z,2.40
2019-05-09T18:05:48.613Z,2.60
2019-05-09T18:08:18.745Z,2.53
2019-05-09T18:10:48.579Z,2.50
2019-05-09T18:13:23.705Z,2.83
2019-05-09T18:15:51.826Z,2.77
2019-05-09T18:18:21.878Z,2.40
2019-05-09T18:20:52.621Z,2.20
2019-05-09T18:23:24.530Z,2.43
2019-05-09T18:25:52.893Z,2.67
2019-05-09T18:28:21.325Z,2.10
2019-05-09T18:30:49.728Z,2.13
2019-05-09T18:33:29.362Z,2.60
2019-05-09T18:35:57.770Z,2.33
2019-05-09T18:38:29.339Z,2.17
2019-05-09T18:40:58.816Z,2.20
2019-05-09T18:43:27.571Z,2.00
2019-05-09T18:45:57.714Z,2.00
2019-05-09T18:48:27.826Z,2.00
2019-05-09T18:50:58.980Z,2.00
2019-05-09T18:53:29.826Z,2.10
2019-05-09T18:55:58.262Z,2.00
2019-05-09T18:58:26.699Z,2.00
2019-05-09T19:00:57.222Z,1.83
2019-05-09T19:03:26.198Z,2.23
2019-05-09T19:05:55.416Z,1.77
2019-05-09T19:08:28.310Z,2.10
2019-05-09T19:10:56.725Z,1.57
2019-05-09T19:13:25.999Z,1.70
2019-05-09T19:16:04.837Z,2.07
2019-05-09T19:18:46.643Z,1.80
2019-05-09T19:21:19.729Z,1.83
2019-05-09T19:23:48.453Z,1.83
2019-05-09T19:26:24.913Z,2.03
2019-05-09T19:28:54.990Z,2.00
2019-05-09T19:31:24.521Z,1.60
2019-05-09T19:33:52.996Z,1.80
2019-05-09T19:36:22.556Z,1.60
2019-05-09T19:38:52.558Z,1.47
2019-05-09T19:41:20.981Z,2.20
2019-05-09T19:43:50.700Z,1.60
2019-05-09T19:46:19.131Z,1.57
2019-05-09T19:48:48.839Z,1.60
2019-05-09T19:51:17.924Z,2.00
2019-05-09T19:53:48.769Z,1.60
2019-05-09T19:56:21.501Z,1.77
2019-05-09T19:58:51.364Z,1.40
2019-05-09T20:01:22.249Z,1.50
2019-05-09T20:03:50.667Z,1.47
2019-05-09T20:06:21.576Z,1.33
2019-05-09T20:08:50.253Z,1.40
2019-05-09T20:11:32.766Z,1.30
2019-05-09T20:14:06.409Z,1.43
2019-05-09T20:16:40.949Z,1.70
2019-05-09T20:19:14.986Z,1.80
2019-05-09T20:21:46.935Z,1.50
2019-05-09T20:24:15.124Z,1.53
2019-05-09T20:26:43.514Z,1.77
2019-05-09T20:29:11.986Z,2.00
2019-05-09T20:31:42.040Z,2.00
2019-05-09T20:34:10.606Z,1.50
2019-05-09T20:36:39.018Z,1.93
2019-05-09T20:39:07.599Z,1.80
2019-05-09T20:41:37.548Z,1.70
2019-05-09T20:44:09.026Z,1.70
2019-05-09T20:46:38.670Z,1.40
2019-05-09T20:49:07.263Z,1.40
2019-05-09T20:51:35.892Z,1.70
2019-05-09T20:54:18.967Z,1.80
2019-05-09T20:56:37.446Z,2.00
2019-05-09T20:59:08.321Z,1.60
2019-05-09T21:01:41.400Z,1.67
2019-05-09T21:04:15.489Z,1.47
2019-05-09T21:06:45.994Z,1.40
2019-05-09T21:09:16.411Z,1.30
2019-05-09T21:11:45.044Z,1.53
2019-05-09T21:14:14.557Z,1.50
2019-05-09T21:16:48.322Z,1.30
2019-05-09T21:19:18.974Z,1.50
2019-05-09T21:21:48.566Z,1.50
2019-05-09T21:24:19.950Z,1.40
2019-05-09T21:26:49.287Z,1.60
2019-05-09T21:29:20.359Z,1.57
2019-05-09T21:31:51.007Z,1.30
2019-05-09T21:34:21.200Z,1.50
2019-05-09T21:36:52.026Z,1.20
2019-05-09T21:39:22.753Z,1.60
2019-05-09T21:41:53.093Z,1.60
2019-05-09T21:44:22.805Z,1.80
2019-05-09T21:46:53.620Z,1.77
2019-05-09T21:49:22.038Z,1.53
2019-05-09T21:51:56.660Z,1.40
2019-05-09T21:54:25.376Z,1.30
2019-05-09T21:56:56.595Z,1.20
2019-05-09T21:59:25.548Z,1.30
2019-05-09T22:01:55.039Z,1.10
2019-05-09T22:04:23.632Z,1.10
2019-05-09T22:06:52.331Z,1.30
2019-05-09T22:09:22.979Z,1.20
2019-05-09T22:11:52.061Z,1.30
2019-05-09T22:14:21.178Z,1.40
2019-05-09T22:16:50.129Z,1.30
2019-05-09T22:19:18.560Z,1.10
2019-05-09T22:21:48.595Z,1.10
2019-05-09T22:24:17.294Z,1.30
2019-05-09T22:26:49.747Z,1.40
2019-05-09T22:29:18.484Z,1.10
2019-05-09T22:31:46.907Z,1.20
2019-05-09T22:34:16.022Z,1.30
2019-05-09T22:36:45.574Z,1.10
2019-05-09T22:39:15.241Z,1.13
2019-05-09T22:41:45.250Z,1.40
2019-05-09T22:44:13.819Z,1.20
2019-05-09T22:46:42.924Z,1.20
2019-05-09T22:49:11.337Z,1.00
2019-05-09T22:51:41.131Z,1.40
2019-05-09T22:54:12.640Z,1.20
2019-05-09T22:56:40.026Z,1.30
2019-05-09T22:59:10.619Z,1.17
2019-05-09T23:01:40.706Z,1.10
2019-05-09T23:04:11.245Z,1.00
2019-05-09T23:06:41.633Z,1.20
2019-05-09T23:09:10.016Z,1.10
2019-05-09T23:11:38.438Z,1.20
2019-05-09T23:14:08.774Z,1.33
2019-05-09T23:16:43.557Z,1.30
2019-05-09T23:19:12.000Z,1.20
2019-05-09T23:21:42.244Z,1.00
2019-05-09T23:24:27.339Z,1.13
2019-05-09T23:26:43.170Z,0.83
2019-05-09T23:29:14.022Z,1.10
2019-05-09T23:31:44.342Z,0.80
2019-05-09T23:34:12.906Z,1.10
2019-05-09T23:36:42.278Z,1.20
2019-05-09T23:39:27.682Z,1.20
2019-05-09T23:41:57.087Z,1.10
2019-05-09T23:44:26.853Z,1.17
2019-05-09T23:46:55.290Z,0.90
2019-05-09T23:49:31.025Z,1.10
2019-05-09T23:52:02.322Z,1.10
2019-05-09T23:54:50.910Z,1.03
2019-05-09T23:57:44.820Z,1.10
